sensor_id;sensor_type;location;lat;lon;timestamp;P1;durP1;ratioP1;P2;durP2;ratioP2
76121;SDS011;64853;53.200;6.080;2023-05-07T00:01:35;1.50;;;1.40;;
76121;SDS011;64853;53.200;6.080;2023-05-07T00:06:27;1.92;;;1.60;;
76121;SDS011;64853;53.200;6.080;2023-05-07T00:11:20;1.88;;;1.70;;
76121;SDS011;64853;53.200;6.080;2023-05-07T00:16:11;2.33;;;1.73;;
76121;SDS011;64853;53.200;6.080;2023-05-07T00:21:03;1.90;;;1.70;;
76121;SDS011;64853;53.200;6.080;2023-05-07T00:25:55;2.83;;;2.30;;
76121;SDS011;64853;53.200;6.080;2023-05-07T00:30:48;1.67;;;1.50;;
76121;SDS011;64853;53.200;6.080;2023-05-07T00:35:39;2.40;;;2.20;;
76121;SDS011;64853;53.200;6.080;2023-05-07T00:40:31;2.42;;;1.80;;
76121;SDS011;64853;53.200;6.080;2023-05-07T00:45:22;2.30;;;1.80;;
76121;SDS011;64853;53.200;6.080;2023-05-07T00:50:17;1.92;;;1.50;;
76121;SDS011;64853;53.200;6.080;2023-05-07T00:55:09;2.08;;;1.52;;
76121;SDS011;64853;53.200;6.080;2023-05-07T01:00:02;1.63;;;1.45;;
76121;SDS011;64853;53.200;6.080;2023-05-07T01:04:55;2.13;;;1.92;;
76121;SDS011;64853;53.200;6.080;2023-05-07T01:14:39;2.42;;;1.50;;
76121;SDS011;64853;53.200;6.080;2023-05-07T01:19:30;2.55;;;1.70;;
76121;SDS011;64853;53.200;6.080;2023-05-07T01:24:23;2.10;;;1.90;;
76121;SDS011;64853;53.200;6.080;2023-05-07T01:29:15;1.90;;;1.65;;
76121;SDS011;64853;53.200;6.080;2023-05-07T01:34:06;2.13;;;1.80;;
76121;SDS011;64853;53.200;6.080;2023-05-07T01:39:01;2.30;;;1.85;;
76121;SDS011;64853;53.200;6.080;2023-05-07T01:43:54;2.40;;;2.00;;
76121;SDS011;64853;53.200;6.080;2023-05-07T01:48:46;3.00;;;2.25;;
76121;SDS011;64853;53.200;6.080;2023-05-07T01:53:38;3.60;;;1.88;;
76121;SDS011;64853;53.200;6.080;2023-05-07T01:58:30;2.15;;;1.95;;
76121;SDS011;64853;53.200;6.080;2023-05-07T02:03:23;2.10;;;1.90;;
76121;SDS011;64853;53.200;6.080;2023-05-07T02:08:14;2.53;;;1.92;;
76121;SDS011;64853;53.200;6.080;2023-05-07T02:13:06;2.80;;;2.10;;
76121;SDS011;64853;53.200;6.080;2023-05-07T02:17:58;4.03;;;2.20;;
76121;SDS011;64853;53.200;6.080;2023-05-07T02:22:52;2.50;;;1.90;;
76121;SDS011;64853;53.200;6.080;2023-05-07T02:27:43;3.38;;;2.35;;
76121;SDS011;64853;53.200;6.080;2023-05-07T02:32:35;2.72;;;2.28;;
76121;SDS011;64853;53.200;6.080;2023-05-07T02:37:26;3.08;;;2.38;;
76121;SDS011;64853;53.200;6.080;2023-05-07T02:42:19;3.25;;;2.17;;
76121;SDS011;64853;53.200;6.080;2023-05-07T02:47:10;2.70;;;2.05;;
76121;SDS011;64853;53.200;6.080;2023-05-07T02:52:03;3.88;;;2.50;;
76121;SDS011;64853;53.200;6.080;2023-05-07T02:56:54;2.90;;;2.50;;
76121;SDS011;64853;53.200;6.080;2023-05-07T03:01:47;2.78;;;2.40;;
76121;SDS011;64853;53.200;6.080;2023-05-07T03:06:39;3.67;;;2.63;;
76121;SDS011;64853;53.200;6.080;2023-05-07T03:11:30;2.58;;;2.03;;
76121;SDS011;64853;53.200;6.080;2023-05-07T03:16:22;3.88;;;2.30;;
76121;SDS011;64853;53.200;6.080;2023-05-07T03:21:15;2.97;;;2.45;;
76121;SDS011;64853;53.200;6.080;2023-05-07T03:26:06;3.97;;;2.90;;
76121;SDS011;64853;53.200;6.080;2023-05-07T03:30:57;2.80;;;2.35;;
76121;SDS011;64853;53.200;6.080;2023-05-07T03:35:49;2.90;;;2.42;;
76121;SDS011;64853;53.200;6.080;2023-05-07T03:40:42;3.40;;;2.78;;
76121;SDS011;64853;53.200;6.080;2023-05-07T03:45:33;3.85;;;2.58;;
76121;SDS011;64853;53.200;6.080;2023-05-07T03:50:25;3.10;;;2.80;;
76121;SDS011;64853;53.200;6.080;2023-05-07T03:55:16;3.45;;;2.95;;
76121;SDS011;64853;53.200;6.080;2023-05-07T04:00:10;4.38;;;2.90;;
76121;SDS011;64853;53.200;6.080;2023-05-07T04:05:02;3.13;;;2.72;;
76121;SDS011;64853;53.200;6.080;2023-05-07T04:09:54;5.13;;;2.40;;
76121;SDS011;64853;53.200;6.080;2023-05-07T04:14:45;4.22;;;2.83;;
76121;SDS011;64853;53.200;6.080;2023-05-07T04:19:38;3.50;;;2.92;;
76121;SDS011;64853;53.200;6.080;2023-05-07T04:24:30;3.90;;;3.10;;
76121;SDS011;64853;53.200;6.080;2023-05-07T04:29:22;3.35;;;2.88;;
76121;SDS011;64853;53.200;6.080;2023-05-07T04:34:14;4.40;;;3.28;;
76121;SDS011;64853;53.200;6.080;2023-05-07T04:43:58;4.53;;;3.15;;
76121;SDS011;64853;53.200;6.080;2023-05-07T04:48:50;4.20;;;2.95;;
76121;SDS011;64853;53.200;6.080;2023-05-07T04:53:42;3.63;;;2.58;;
76121;SDS011;64853;53.200;6.080;2023-05-07T04:58:35;4.43;;;2.95;;
76121;SDS011;64853;53.200;6.080;2023-05-07T05:03:26;3.63;;;2.67;;
76121;SDS011;64853;53.200;6.080;2023-05-07T05:08:18;4.40;;;3.17;;
76121;SDS011;64853;53.200;6.080;2023-05-07T05:13:09;3.92;;;3.28;;
76121;SDS011;64853;53.200;6.080;2023-05-07T05:18:04;4.45;;;3.17;;
76121;SDS011;64853;53.200;6.080;2023-05-07T05:22:55;4.00;;;2.88;;
76121;SDS011;64853;53.200;6.080;2023-05-07T05:27:46;5.13;;;3.28;;
76121;SDS011;64853;53.200;6.080;2023-05-07T05:32:38;4.40;;;3.10;;
76121;SDS011;64853;53.200;6.080;2023-05-07T05:37:31;4.28;;;3.10;;
76121;SDS011;64853;53.200;6.080;2023-05-07T05:42:22;3.72;;;2.85;;
76121;SDS011;64853;53.200;6.080;2023-05-07T05:47:14;4.18;;;3.20;;
76121;SDS011;64853;53.200;6.080;2023-05-07T05:52:05;3.33;;;2.85;;
76121;SDS011;64853;53.200;6.080;2023-05-07T05:56:58;4.32;;;3.15;;
76121;SDS011;64853;53.200;6.080;2023-05-07T06:01:50;3.35;;;2.88;;
76121;SDS011;64853;53.200;6.080;2023-05-07T06:06:41;5.15;;;3.00;;
76121;SDS011;64853;53.200;6.080;2023-05-07T06:11:33;4.88;;;3.28;;
76121;SDS011;64853;53.200;6.080;2023-05-07T06:16:26;5.05;;;3.20;;
76121;SDS011;64853;53.200;6.080;2023-05-07T06:21:17;3.85;;;2.72;;
76121;SDS011;64853;53.200;6.080;2023-05-07T06:26:09;5.05;;;3.30;;
76121;SDS011;64853;53.200;6.080;2023-05-07T06:31:10;4.22;;;3.05;;
76121;SDS011;64853;53.200;6.080;2023-05-07T06:36:04;3.70;;;2.72;;
76121;SDS011;64853;53.200;6.080;2023-05-07T06:40:56;7.10;;;4.18;;
76121;SDS011;64853;53.200;6.080;2023-05-07T06:45:48;5.00;;;3.53;;
76121;SDS011;64853;53.200;6.080;2023-05-07T06:50:39;3.35;;;2.50;;
76121;SDS011;64853;53.200;6.080;2023-05-07T06:55:32;5.10;;;2.95;;
76121;SDS011;64853;53.200;6.080;2023-05-07T07:00:23;3.55;;;2.50;;
76121;SDS011;64853;53.200;6.080;2023-05-07T07:05:15;4.82;;;2.65;;
76121;SDS011;64853;53.200;6.080;2023-05-07T07:10:07;3.63;;;2.53;;
76121;SDS011;64853;53.200;6.080;2023-05-07T07:15:00;4.47;;;3.00;;
76121;SDS011;64853;53.200;6.080;2023-05-07T07:19:52;3.88;;;3.13;;
76121;SDS011;64853;53.200;6.080;2023-05-07T07:24:43;3.63;;;2.55;;
76121;SDS011;64853;53.200;6.080;2023-05-07T07:29:35;3.33;;;2.55;;
76121;SDS011;64853;53.200;6.080;2023-05-07T07:34:28;3.53;;;2.63;;
76121;SDS011;64853;53.200;6.080;2023-05-07T07:39:20;5.10;;;2.90;;
76121;SDS011;64853;53.200;6.080;2023-05-07T07:44:11;9.25;;;2.80;;
76121;SDS011;64853;53.200;6.080;2023-05-07T07:49:03;3.47;;;2.40;;
76121;SDS011;64853;53.200;6.080;2023-05-07T07:53:55;3.72;;;2.60;;
76121;SDS011;64853;53.200;6.080;2023-05-07T07:58:47;4.20;;;2.75;;
76121;SDS011;64853;53.200;6.080;2023-05-07T08:03:39;4.65;;;2.90;;
76121;SDS011;64853;53.200;6.080;2023-05-07T08:13:23;4.75;;;2.53;;
76121;SDS011;64853;53.200;6.080;2023-05-07T08:18:14;4.72;;;2.83;;
76121;SDS011;64853;53.200;6.080;2023-05-07T08:23:06;3.00;;;2.63;;
76121;SDS011;64853;53.200;6.080;2023-05-07T08:27:57;2.55;;;2.05;;
76121;SDS011;64853;53.200;6.080;2023-05-07T08:32:50;4.80;;;2.90;;
76121;SDS011;64853;53.200;6.080;2023-05-07T08:37:42;3.78;;;2.60;;
76121;SDS011;64853;53.200;6.080;2023-05-07T08:42:35;3.33;;;2.45;;
76121;SDS011;64853;53.200;6.080;2023-05-07T08:47:28;3.17;;;2.30;;
76121;SDS011;64853;53.200;6.080;2023-05-07T08:52:26;3.03;;;2.50;;
76121;SDS011;64853;53.200;6.080;2023-05-07T08:57:17;3.65;;;2.50;;
76121;SDS011;64853;53.200;6.080;2023-05-07T09:02:10;4.10;;;2.47;;
76121;SDS011;64853;53.200;6.080;2023-05-07T09:07:02;4.53;;;2.70;;
76121;SDS011;64853;53.200;6.080;2023-05-07T09:11:57;3.63;;;2.80;;
76121;SDS011;64853;53.200;6.080;2023-05-07T09:16:51;3.22;;;2.50;;
76121;SDS011;64853;53.200;6.080;2023-05-07T09:21:43;4.63;;;3.35;;
76121;SDS011;64853;53.200;6.080;2023-05-07T09:26:35;4.40;;;3.17;;
76121;SDS011;64853;53.200;6.080;2023-05-07T09:31:27;3.80;;;2.90;;
76121;SDS011;64853;53.200;6.080;2023-05-07T09:36:19;4.20;;;3.05;;
76121;SDS011;64853;53.200;6.080;2023-05-07T09:46:03;3.70;;;2.83;;
76121;SDS011;64853;53.200;6.080;2023-05-07T09:50:58;2.85;;;2.25;;
76121;SDS011;64853;53.200;6.080;2023-05-07T09:55:53;3.10;;;2.58;;
76121;SDS011;64853;53.200;6.080;2023-05-07T10:00:45;4.82;;;3.10;;
76121;SDS011;64853;53.200;6.080;2023-05-07T10:05:37;3.65;;;3.08;;
76121;SDS011;64853;53.200;6.080;2023-05-07T10:10:30;3.63;;;3.20;;
76121;SDS011;64853;53.200;6.080;2023-05-07T10:15:24;4.82;;;3.33;;
76121;SDS011;64853;53.200;6.080;2023-05-07T10:20:16;5.43;;;3.38;;
76121;SDS011;64853;53.200;6.080;2023-05-07T10:25:09;4.78;;;3.15;;
76121;SDS011;64853;53.200;6.080;2023-05-07T10:30:11;4.00;;;3.17;;
76121;SDS011;64853;53.200;6.080;2023-05-07T10:35:09;4.13;;;3.03;;
76121;SDS011;64853;53.200;6.080;2023-05-07T10:40:05;3.45;;;3.00;;
76121;SDS011;64853;53.200;6.080;2023-05-07T10:44:58;4.13;;;3.00;;
76121;SDS011;64853;53.200;6.080;2023-05-07T10:55:20;3.75;;;3.05;;
76121;SDS011;64853;53.200;6.080;2023-05-07T11:05:34;5.32;;;3.88;;
76121;SDS011;64853;53.200;6.080;2023-05-07T11:15:41;7.95;;;5.25;;
76121;SDS011;64853;53.200;6.080;2023-05-07T11:20:44;6.47;;;4.70;;
76121;SDS011;64853;53.200;6.080;2023-05-07T11:25:40;7.07;;;4.35;;
76121;SDS011;64853;53.200;6.080;2023-05-07T11:30:32;5.20;;;4.43;;
76121;SDS011;64853;53.200;6.080;2023-05-07T11:35:24;5.35;;;3.90;;
76121;SDS011;64853;53.200;6.080;2023-05-07T11:40:16;7.00;;;4.25;;
76121;SDS011;64853;53.200;6.080;2023-05-07T11:50:02;7.03;;;4.40;;
76121;SDS011;64853;53.200;6.080;2023-05-07T11:54:57;4.70;;;3.50;;
76121;SDS011;64853;53.200;6.080;2023-05-07T11:59:52;4.07;;;2.95;;
76121;SDS011;64853;53.200;6.080;2023-05-07T12:04:44;4.68;;;3.70;;
76121;SDS011;64853;53.200;6.080;2023-05-07T12:09:35;4.47;;;3.25;;
76121;SDS011;64853;53.200;6.080;2023-05-07T12:14:29;3.88;;;3.03;;
76121;SDS011;64853;53.200;6.080;2023-05-07T12:19:21;4.97;;;3.28;;
76121;SDS011;64853;53.200;6.080;2023-05-07T12:24:14;4.15;;;3.10;;
76121;SDS011;64853;53.200;6.080;2023-05-07T12:29:05;3.28;;;2.85;;
76121;SDS011;64853;53.200;6.080;2023-05-07T12:38:50;3.97;;;3.03;;
76121;SDS011;64853;53.200;6.080;2023-05-07T12:43:43;4.32;;;3.33;;
76121;SDS011;64853;53.200;6.080;2023-05-07T12:48:36;4.97;;;3.08;;
76121;SDS011;64853;53.200;6.080;2023-05-07T12:53:30;4.13;;;2.90;;
76121;SDS011;64853;53.200;6.080;2023-05-07T12:58:23;4.00;;;2.45;;
76121;SDS011;64853;53.200;6.080;2023-05-07T13:03:23;3.83;;;3.28;;
76121;SDS011;64853;53.200;6.080;2023-05-07T13:08:25;4.03;;;3.22;;
76121;SDS011;64853;53.200;6.080;2023-05-07T13:13:19;3.35;;;2.70;;
76121;SDS011;64853;53.200;6.080;2023-05-07T13:18:11;3.75;;;3.03;;
76121;SDS011;64853;53.200;6.080;2023-05-07T13:27:54;3.47;;;2.75;;
76121;SDS011;64853;53.200;6.080;2023-05-07T13:32:47;3.70;;;2.83;;
76121;SDS011;64853;53.200;6.080;2023-05-07T13:37:39;3.08;;;2.78;;
76121;SDS011;64853;53.200;6.080;2023-05-07T13:42:30;3.10;;;2.63;;
76121;SDS011;64853;53.200;6.080;2023-05-07T13:47:22;3.35;;;3.00;;
76121;SDS011;64853;53.200;6.080;2023-05-07T13:52:15;2.83;;;2.40;;
76121;SDS011;64853;53.200;6.080;2023-05-07T13:57:06;3.60;;;2.83;;
76121;SDS011;64853;53.200;6.080;2023-05-07T14:06:49;3.20;;;2.47;;
76121;SDS011;64853;53.200;6.080;2023-05-07T14:11:42;3.63;;;2.72;;
76121;SDS011;64853;53.200;6.080;2023-05-07T14:16:33;3.20;;;2.70;;
76121;SDS011;64853;53.200;6.080;2023-05-07T14:21:25;2.97;;;2.47;;
76121;SDS011;64853;53.200;6.080;2023-05-07T14:26:16;3.80;;;2.78;;
76121;SDS011;64853;53.200;6.080;2023-05-07T14:31:09;3.30;;;3.00;;
76121;SDS011;64853;53.200;6.080;2023-05-07T14:36:00;3.25;;;2.65;;
76121;SDS011;64853;53.200;6.080;2023-05-07T14:40:53;2.70;;;2.42;;
76121;SDS011;64853;53.200;6.080;2023-05-07T14:45:46;3.85;;;2.60;;
76121;SDS011;64853;53.200;6.080;2023-05-07T14:50:38;3.22;;;2.50;;
76121;SDS011;64853;53.200;6.080;2023-05-07T14:55:30;2.53;;;2.03;;
76121;SDS011;64853;53.200;6.080;2023-05-07T15:05:13;2.92;;;2.63;;
76121;SDS011;64853;53.200;6.080;2023-05-07T15:10:07;2.78;;;2.42;;
76121;SDS011;64853;53.200;6.080;2023-05-07T15:14:59;3.47;;;2.60;;
76121;SDS011;64853;53.200;6.080;2023-05-07T15:24:41;2.90;;;2.60;;
76121;SDS011;64853;53.200;6.080;2023-05-07T15:29:35;3.83;;;2.75;;
76121;SDS011;64853;53.200;6.080;2023-05-07T15:34:27;2.58;;;2.38;;
76121;SDS011;64853;53.200;6.080;2023-05-07T15:44:09;2.63;;;2.30;;
76121;SDS011;64853;53.200;6.080;2023-05-07T15:53:54;2.90;;;2.53;;
76121;SDS011;64853;53.200;6.080;2023-05-07T15:58:45;2.50;;;2.30;;
76121;SDS011;64853;53.200;6.080;2023-05-07T16:03:37;3.05;;;2.60;;
76121;SDS011;64853;53.200;6.080;2023-05-07T16:08:31;2.47;;;2.13;;
76121;SDS011;64853;53.200;6.080;2023-05-07T16:13:23;3.05;;;2.33;;
76121;SDS011;64853;53.200;6.080;2023-05-07T16:18:14;2.22;;;2.03;;
76121;SDS011;64853;53.200;6.080;2023-05-07T16:27:58;2.50;;;2.30;;
76121;SDS011;64853;53.200;6.080;2023-05-07T16:32:50;2.70;;;2.50;;
76121;SDS011;64853;53.200;6.080;2023-05-07T16:37:41;2.40;;;2.20;;
76121;SDS011;64853;53.200;6.080;2023-05-07T16:42:33;2.60;;;2.10;;
76121;SDS011;64853;53.200;6.080;2023-05-07T16:47:26;2.50;;;2.20;;
76121;SDS011;64853;53.200;6.080;2023-05-07T16:52:18;2.65;;;2.45;;
76121;SDS011;64853;53.200;6.080;2023-05-07T16:57:09;2.45;;;2.05;;
76121;SDS011;64853;53.200;6.080;2023-05-07T17:02:01;2.30;;;2.10;;
76121;SDS011;64853;53.200;6.080;2023-05-07T17:06:53;2.10;;;1.90;;
76121;SDS011;64853;53.200;6.080;2023-05-07T17:11:45;2.33;;;2.13;;
76121;SDS011;64853;53.200;6.080;2023-05-07T17:16:37;2.13;;;1.88;;
76121;SDS011;64853;53.200;6.080;2023-05-07T17:21:28;2.05;;;1.80;;
76121;SDS011;64853;53.200;6.080;2023-05-07T17:26:21;2.58;;;2.20;;
76121;SDS011;64853;53.200;6.080;2023-05-07T17:31:12;2.38;;;2.17;;
76121;SDS011;64853;53.200;6.080;2023-05-07T17:40:57;2.65;;;2.30;;
76121;SDS011;64853;53.200;6.080;2023-05-07T17:45:50;2.92;;;2.33;;
76121;SDS011;64853;53.200;6.080;2023-05-07T17:50:42;4.45;;;2.67;;
76121;SDS011;64853;53.200;6.080;2023-05-07T17:55:34;3.22;;;2.80;;
76121;SDS011;64853;53.200;6.080;2023-05-07T18:00:29;3.20;;;2.22;;
76121;SDS011;64853;53.200;6.080;2023-05-07T18:05:22;4.45;;;2.80;;
76121;SDS011;64853;53.200;6.080;2023-05-07T18:10:13;3.22;;;2.55;;
76121;SDS011;64853;53.200;6.080;2023-05-07T18:15:05;3.17;;;2.53;;
76121;SDS011;64853;53.200;6.080;2023-05-07T18:19:57;2.70;;;2.50;;
76121;SDS011;64853;53.200;6.080;2023-05-07T18:24:50;3.53;;;2.80;;
76121;SDS011;64853;53.200;6.080;2023-05-07T18:29:42;4.10;;;2.70;;
76121;SDS011;64853;53.200;6.080;2023-05-07T18:34:33;2.70;;;2.50;;
76121;SDS011;64853;53.200;6.080;2023-05-07T18:39:25;3.17;;;2.88;;
76121;SDS011;64853;53.200;6.080;2023-05-07T18:44:17;3.63;;;3.10;;
76121;SDS011;64853;53.200;6.080;2023-05-07T18:49:09;3.22;;;2.53;;
76121;SDS011;64853;53.200;6.080;2023-05-07T18:58:52;2.58;;;2.38;;
76121;SDS011;64853;53.200;6.080;2023-05-07T19:03:45;2.78;;;2.47;;
76121;SDS011;64853;53.200;6.080;2023-05-07T19:08:36;2.50;;;2.30;;
76121;SDS011;64853;53.200;6.080;2023-05-07T19:13:27;2.67;;;2.47;;
76121;SDS011;64853;53.200;6.080;2023-05-07T19:23:11;2.40;;;2.20;;
76121;SDS011;64853;53.200;6.080;2023-05-07T19:28:03;2.50;;;2.30;;
76121;SDS011;64853;53.200;6.080;2023-05-07T19:32:54;3.13;;;2.78;;
76121;SDS011;64853;53.200;6.080;2023-05-07T19:42:39;3.15;;;2.80;;
76121;SDS011;64853;53.200;6.080;2023-05-07T19:47:30;3.20;;;2.83;;
76121;SDS011;64853;53.200;6.080;2023-05-07T19:57:13;2.75;;;2.35;;
76121;SDS011;64853;53.200;6.080;2023-05-07T20:02:07;2.42;;;2.22;;
76121;SDS011;64853;53.200;6.080;2023-05-07T20:06:59;2.90;;;2.42;;
76121;SDS011;64853;53.200;6.080;2023-05-07T20:16:42;2.53;;;2.30;;
76121;SDS011;64853;53.200;6.080;2023-05-07T20:21:34;2.40;;;2.20;;
76121;SDS011;64853;53.200;6.080;2023-05-07T20:26:26;2.83;;;2.33;;
76121;SDS011;64853;53.200;6.080;2023-05-07T20:31:17;2.78;;;2.40;;
76121;SDS011;64853;53.200;6.080;2023-05-07T20:36:09;2.75;;;2.47;;
76121;SDS011;64853;53.200;6.080;2023-05-07T20:41:05;2.78;;;2.10;;
76121;SDS011;64853;53.200;6.080;2023-05-07T20:45:57;2.45;;;2.25;;
76121;SDS011;64853;53.200;6.080;2023-05-07T20:50:49;2.00;;;1.75;;
76121;SDS011;64853;53.200;6.080;2023-05-07T20:55:40;2.40;;;2.05;;
76121;SDS011;64853;53.200;6.080;2023-05-07T21:00:33;2.20;;;2.00;;
76121;SDS011;64853;53.200;6.080;2023-05-07T21:05:24;2.90;;;2.30;;
76121;SDS011;64853;53.200;6.080;2023-05-07T21:10:16;2.03;;;1.85;;
76121;SDS011;64853;53.200;6.080;2023-05-07T21:15:08;2.50;;;2.15;;
76121;SDS011;64853;53.200;6.080;2023-05-07T21:20:02;2.78;;;2.22;;
76121;SDS011;64853;53.200;6.080;2023-05-07T21:24:53;2.53;;;2.33;;
76121;SDS011;64853;53.200;6.080;2023-05-07T21:29:45;2.25;;;2.05;;
76121;SDS011;64853;53.200;6.080;2023-05-07T21:39:29;2.47;;;2.20;;
76121;SDS011;64853;53.200;6.080;2023-05-07T21:44:20;2.45;;;2.22;;
76121;SDS011;64853;53.200;6.080;2023-05-07T21:54:03;2.30;;;1.98;;
76121;SDS011;64853;53.200;6.080;2023-05-07T21:58:57;2.97;;;2.40;;
76121;SDS011;64853;53.200;6.080;2023-05-07T22:03:48;2.25;;;2.00;;
76121;SDS011;64853;53.200;6.080;2023-05-07T22:08:40;2.63;;;2.08;;
76121;SDS011;64853;53.200;6.080;2023-05-07T22:13:31;2.30;;;2.03;;
76121;SDS011;64853;53.200;6.080;2023-05-07T22:18:24;2.60;;;2.08;;
76121;SDS011;64853;53.200;6.080;2023-05-07T22:23:15;2.08;;;1.90;;
76121;SDS011;64853;53.200;6.080;2023-05-07T22:28:07;2.70;;;2.15;;
76121;SDS011;64853;53.200;6.080;2023-05-07T22:32:58;2.35;;;2.00;;
76121;SDS011;64853;53.200;6.080;2023-05-07T22:37:51;2.03;;;1.63;;
76121;SDS011;64853;53.200;6.080;2023-05-07T22:42:42;2.42;;;2.22;;
76121;SDS011;64853;53.200;6.080;2023-05-07T22:47:34;2.20;;;1.98;;
76121;SDS011;64853;53.200;6.080;2023-05-07T22:52:25;2.83;;;2.33;;
76121;SDS011;64853;53.200;6.080;2023-05-07T22:57:18;2.03;;;1.83;;
76121;SDS011;64853;53.200;6.080;2023-05-07T23:02:09;2.38;;;2.15;;
76121;SDS011;64853;53.200;6.080;2023-05-07T23:07:01;2.60;;;2.28;;
76121;SDS011;64853;53.200;6.080;2023-05-07T23:11:52;2.47;;;2.28;;
76121;SDS011;64853;53.200;6.080;2023-05-07T23:16:45;1.85;;;1.75;;
76121;SDS011;64853;53.200;6.080;2023-05-07T23:21:36;2.30;;;2.00;;
76121;SDS011;64853;53.200;6.080;2023-05-07T23:26:28;2.53;;;2.33;;
76121;SDS011;64853;53.200;6.080;2023-05-07T23:31:19;2.40;;;2.20;;
76121;SDS011;64853;53.200;6.080;2023-05-07T23:36:12;2.20;;;2.00;;
76121;SDS011;64853;53.200;6.080;2023-05-07T23:41:04;2.30;;;2.10;;
76121;SDS011;64853;53.200;6.080;2023-05-07T23:45:55;2.03;;;1.88;;
76121;SDS011;64853;53.200;6.080;2023-05-07T23:50:46;2.30;;;2.10;;
76121;SDS011;64853;53.200;6.080;2023-05-07T23:55:39;2.28;;;2.08;;
